createdAt,value
2022-10-17T00:00:05.590Z,21.70
2022-10-17T00:02:54.821Z,19.10
2022-10-17T00:05:21.496Z,17.10
2022-10-17T00:07:47.706Z,18.60
2022-10-17T00:10:14.285Z,18.10
2022-10-17T00:12:40.515Z,21.60
2022-10-17T00:15:07.439Z,18.30
2022-10-17T00:17:33.809Z,18.80
2022-10-17T00:20:01.788Z,22.40
2022-10-17T00:22:28.046Z,21.30
2022-10-17T00:24:54.314Z,21.00
2022-10-17T00:27:20.552Z,21.10
2022-10-17T00:29:51.286Z,22.40
2022-10-17T00:32:18.923Z,22.80
2022-10-17T00:34:45.417Z,21.40
2022-10-17T00:37:11.744Z,23.40
2022-10-17T00:39:38.405Z,22.40
2022-10-17T00:42:04.701Z,21.60
2022-10-17T00:44:30.872Z,22.00
2022-10-17T00:47:00.892Z,21.90
2022-10-17T00:49:31.838Z,18.70
2022-10-17T00:52:01.544Z,20.90
2022-10-17T00:54:36.579Z,22.60
2022-10-17T00:57:03.931Z,19.60
2022-10-17T00:59:33.438Z,19.90
2022-10-17T01:02:07.797Z,19.30
2022-10-17T01:04:36.239Z,17.00
2022-10-17T01:07:02.524Z,17.10
2022-10-17T01:09:29.613Z,17.90
2022-10-17T01:12:06.596Z,16.60
2022-10-17T01:14:49.717Z,17.50
2022-10-17T01:17:33.186Z,15.80
2022-10-17T01:20:15.417Z,15.80
2022-10-17T01:22:49.696Z,15.40
2022-10-17T01:25:47.947Z,16.50
2022-10-17T01:28:39.469Z,16.70
2022-10-17T01:31:08.845Z,17.40
2022-10-17T01:34:02.102Z,17.00
2022-10-17T01:36:44.283Z,14.30
2022-10-17T01:39:31.830Z,15.80
2022-10-17T01:42:05.904Z,17.90
2022-10-17T01:44:58.200Z,14.90
2022-10-17T01:47:30.014Z,12.50
2022-10-17T01:50:06.792Z,16.20
2022-10-17T01:52:40.762Z,13.40
2022-10-17T01:55:12.750Z,13.00
2022-10-17T01:57:48.617Z,15.50
2022-10-17T02:00:22.728Z,16.40
2022-10-17T02:02:58.028Z,17.70
2022-10-17T02:07:53.261Z,17.60
2022-10-17T02:10:39.016Z,20.30
2022-10-17T02:13:26.562Z,18.30
2022-10-17T02:15:59.450Z,16.40
2022-10-17T02:18:41.853Z,15.60
2022-10-17T02:21:18.600Z,17.30
2022-10-17T02:23:54.799Z,16.00
2022-10-17T02:26:32.337Z,17.10
2022-10-17T02:29:14.480Z,17.80
2022-10-17T02:31:51.075Z,18.20
2022-10-17T02:34:27.132Z,17.80
2022-10-17T02:37:00.080Z,17.70
2022-10-17T02:39:28.627Z,19.50
2022-10-17T02:42:01.092Z,18.20
2022-10-17T02:44:30.363Z,18.10
2022-10-17T02:47:38.925Z,18.50
2022-10-17T02:50:06.023Z,17.00
2022-10-17T02:52:55.014Z,18.60
2022-10-17T02:55:31.569Z,18.70
2022-10-17T02:58:16.244Z,19.50
2022-10-17T03:00:43.043Z,17.20
2022-10-17T03:03:30.813Z,18.00
2022-10-17T03:06:00.193Z,18.10
2022-10-17T03:08:26.598Z,16.80
2022-10-17T03:10:52.916Z,18.80
2022-10-17T03:13:21.158Z,19.20
2022-10-17T03:15:47.520Z,20.50
2022-10-17T03:18:13.797Z,19.30
2022-10-17T03:20:40.067Z,18.90
2022-10-17T03:23:06.583Z,20.20
2022-10-17T03:25:32.957Z,21.60
2022-10-17T03:28:00.876Z,18.60
2022-10-17T03:30:28.527Z,18.00
2022-10-17T03:32:57.748Z,22.10
2022-10-17T03:35:25.402Z,24.60
2022-10-17T03:37:52.202Z,24.10
2022-10-17T03:40:19.875Z,51.90
2022-10-17T03:42:46.204Z,57.80
2022-10-17T03:45:13.118Z,35.10
2022-10-17T03:47:39.678Z,25.90
2022-10-17T03:50:07.893Z,25.40
2022-10-17T03:52:35.520Z,25.40
2022-10-17T03:55:02.287Z,24.90
2022-10-17T03:57:29.724Z,24.90
2022-10-17T03:59:56.486Z,24.10
2022-10-17T04:02:24.720Z,24.80
2022-10-17T04:04:51.890Z,24.60
2022-10-17T04:07:18.249Z,25.50
2022-10-17T04:09:44.820Z,25.40
2022-10-17T04:12:14.117Z,24.40
2022-10-17T04:14:40.353Z,21.40
2022-10-17T04:17:06.809Z,22.90
2022-10-17T04:19:33.836Z,22.80
2022-10-17T04:22:02.471Z,22.30
2022-10-17T04:24:29.383Z,21.70
2022-10-17T04:27:18.846Z,20.50
2022-10-17T04:29:45.656Z,20.80
2022-10-17T04:32:24.984Z,20.50
2022-10-17T04:35:01.396Z,21.80
2022-10-17T04:37:29.502Z,22.90
2022-10-17T04:39:56.077Z,23.40
2022-10-17T04:42:22.765Z,26.70
2022-10-17T04:44:51.670Z,24.80
2022-10-17T04:47:18.256Z,24.90
2022-10-17T04:49:44.488Z,24.40
2022-10-17T04:52:10.885Z,39.50
2022-10-17T04:54:40.111Z,27.00
2022-10-17T04:57:08.739Z,25.70
2022-10-17T04:59:35.107Z,25.40
2022-10-17T05:02:17.354Z,24.40
2022-10-17T05:04:44.994Z,25.30
2022-10-17T05:07:11.941Z,24.70
2022-10-17T05:09:41.046Z,23.80
2022-10-17T05:12:10.310Z,24.70
2022-10-17T05:14:38.503Z,24.50
2022-10-17T05:17:04.775Z,22.70
2022-10-17T05:19:31.095Z,25.90
2022-10-17T05:21:57.624Z,24.10
2022-10-17T05:24:23.895Z,24.50
2022-10-17T05:26:51.232Z,27.80
2022-10-17T05:29:17.904Z,29.70
2022-10-17T05:31:48.151Z,28.70
2022-10-17T05:34:14.465Z,29.50
2022-10-17T05:36:41.165Z,29.90
2022-10-17T05:39:08.222Z,30.80
2022-10-17T05:41:35.602Z,28.10
2022-10-17T05:44:04.764Z,28.20
2022-10-17T05:46:39.395Z,26.20
2022-10-17T05:49:15.056Z,29.20
2022-10-17T05:51:53.219Z,46.50
2022-10-17T05:54:20.159Z,31.60
2022-10-17T05:56:54.437Z,32.60
2022-10-17T05:59:24.527Z,63.30
2022-10-17T06:01:57.796Z,66.20
2022-10-17T06:04:27.039Z,46.80
2022-10-17T06:06:55.497Z,53.00
2022-10-17T06:09:22.975Z,49.00
2022-10-17T06:11:51.668Z,46.30
2022-10-17T06:14:17.890Z,42.80
2022-10-17T06:16:44.148Z,43.20
2022-10-17T06:19:10.833Z,45.00
2022-10-17T06:21:38.222Z,42.60
2022-10-17T06:24:09.840Z,40.40
2022-10-17T06:26:39.348Z,40.00
2022-10-17T06:29:11.378Z,37.00
2022-10-17T06:31:50.168Z,33.50
2022-10-17T06:34:21.125Z,29.70
2022-10-17T06:36:53.949Z,29.90
2022-10-17T06:39:21.060Z,26.10
2022-10-17T06:41:56.456Z,28.00
2022-10-17T06:44:40.885Z,28.10
2022-10-17T06:47:33.628Z,26.80
2022-10-17T06:50:06.284Z,28.70
2022-10-17T06:52:51.237Z,31.80
2022-10-17T06:55:37.533Z,33.50
2022-10-17T06:58:17.344Z,35.10
2022-10-17T07:03:36.111Z,33.50
2022-10-17T07:06:07.068Z,34.40
2022-10-17T07:08:33.506Z,30.60
2022-10-17T07:11:13.963Z,31.60
2022-10-17T07:13:46.179Z,30.80
2022-10-17T07:16:16.577Z,34.40
2022-10-17T07:18:58.652Z,37.90
2022-10-17T07:21:35.196Z,34.40
2022-10-17T07:24:09.310Z,38.10
2022-10-17T07:26:43.331Z,37.80
2022-10-17T07:29:12.185Z,36.30
2022-10-17T07:31:48.230Z,38.80
2022-10-17T07:34:15.918Z,38.30
2022-10-17T07:36:45.344Z,39.80
2022-10-17T07:39:13.219Z,39.70
2022-10-17T07:41:40.023Z,40.60
2022-10-17T07:44:06.831Z,40.20
2022-10-17T07:46:45.635Z,41.20
2022-10-17T07:49:11.953Z,38.40
2022-10-17T07:51:39.759Z,43.20
2022-10-17T07:54:06.112Z,41.50
2022-10-17T07:56:32.609Z,46.40
2022-10-17T07:59:00.705Z,44.60
2022-10-17T08:01:29.421Z,40.30
2022-10-17T08:03:55.717Z,38.90
2022-10-17T08:06:21.942Z,42.60
2022-10-17T08:08:48.335Z,40.60
2022-10-17T08:11:15.296Z,41.40
2022-10-17T08:13:42.057Z,41.60
2022-10-17T08:16:11.428Z,41.50
2022-10-17T08:18:39.946Z,42.20
2022-10-17T08:21:07.672Z,43.90
2022-10-17T08:23:35.999Z,43.00
2022-10-17T08:26:05.221Z,46.60
2022-10-17T08:28:35.443Z,43.50
2022-10-17T08:31:08.250Z,48.10
2022-10-17T08:33:34.712Z,42.20
2022-10-17T08:36:01.977Z,43.30
2022-10-17T08:38:33.230Z,43.10
2022-10-17T08:41:05.993Z,40.60
2022-10-17T08:43:54.372Z,48.00
2022-10-17T08:46:21.109Z,49.80
2022-10-17T08:48:50.569Z,41.80
2022-10-17T08:51:23.740Z,43.90
2022-10-17T08:53:52.856Z,43.90
2022-10-17T08:56:43.948Z,40.40
2022-10-17T08:59:15.316Z,43.60
2022-10-17T09:01:44.971Z,45.40
2022-10-17T09:04:20.224Z,43.80
2022-10-17T09:06:55.400Z,44.40
2022-10-17T09:09:34.532Z,39.90
2022-10-17T09:12:13.101Z,39.80
2022-10-17T09:14:47.800Z,41.20
2022-10-17T09:17:32.833Z,42.90
2022-10-17T09:20:10.904Z,38.50
2022-10-17T09:22:44.222Z,39.70
2022-10-17T09:25:14.514Z,38.80
2022-10-17T09:27:45.805Z,40.70
2022-10-17T09:30:45.506Z,44.20
2022-10-17T09:33:42.361Z,40.30
2022-10-17T09:36:15.803Z,40.30
2022-10-17T09:38:47.147Z,37.00
2022-10-17T09:41:43.142Z,36.60
2022-10-17T09:44:19.563Z,35.50
2022-10-17T09:47:14.511Z,35.90
2022-10-17T09:49:43.748Z,36.10
2022-10-17T09:52:15.061Z,31.00
2022-10-17T09:54:57.696Z,33.60
2022-10-17T09:57:24.780Z,27.70
2022-10-17T10:00:07.493Z,25.10
2022-10-17T10:02:49.857Z,22.90
2022-10-17T10:05:19.295Z,22.30
2022-10-17T10:08:02.701Z,22.60
2022-10-17T10:10:31.002Z,22.20
2022-10-17T10:13:13.212Z,20.30
2022-10-17T10:15:42.076Z,20.40
2022-10-17T10:21:08.905Z,17.60
2022-10-17T10:23:39.316Z,17.30
2022-10-17T10:26:21.067Z,16.40
2022-10-17T10:28:55.130Z,14.50
2022-10-17T10:31:27.741Z,13.90
2022-10-17T10:33:56.864Z,13.80
2022-10-17T10:36:24.049Z,13.10
2022-10-17T10:38:58.318Z,12.80
2022-10-17T10:41:27.190Z,12.00
2022-10-17T10:43:55.472Z,14.30
2022-10-17T10:46:26.004Z,14.30
2022-10-17T10:49:01.003Z,17.30
2022-10-17T10:51:38.405Z,19.80
2022-10-17T10:54:10.162Z,16.80
2022-10-17T10:56:39.781Z,18.40
2022-10-17T10:59:19.864Z,19.50
2022-10-17T11:01:55.910Z,17.30
2022-10-17T11:04:46.793Z,18.70
2022-10-17T11:07:29.543Z,17.90
2022-10-17T11:09:55.939Z,22.20
2022-10-17T11:12:28.201Z,21.00
2022-10-17T11:15:01.769Z,19.70
2022-10-17T11:18:00.147Z,17.10
2022-10-17T11:20:58.377Z,18.50
2022-10-17T11:24:08.446Z,19.10
2022-10-17T11:26:42.764Z,17.70
2022-10-17T11:29:11.732Z,18.90
2022-10-17T11:31:44.501Z,22.70
2022-10-17T11:34:28.764Z,20.60
2022-10-17T11:37:03.794Z,20.30
2022-10-17T11:39:33.101Z,21.70
2022-10-17T11:42:06.425Z,18.20
2022-10-17T11:44:38.754Z,19.50
2022-10-17T11:47:26.996Z,19.20
2022-10-17T11:53:01.510Z,20.70
2022-10-17T11:55:30.042Z,23.80
2022-10-17T11:58:03.151Z,20.90
2022-10-17T12:00:47.553Z,19.70
2022-10-17T12:03:34.300Z,19.70
2022-10-17T12:06:20.001Z,18.00
2022-10-17T12:08:55.507Z,18.10
2022-10-17T12:11:42.697Z,18.80
2022-10-17T12:14:38.895Z,17.50
2022-10-17T12:17:20.303Z,17.70
2022-10-17T12:19:46.606Z,18.80
2022-10-17T12:22:28.870Z,18.30
2022-10-17T12:24:58.125Z,18.20
2022-10-17T12:27:45.636Z,17.80
2022-10-17T12:30:12.005Z,18.60
2022-10-17T12:33:05.743Z,19.90
2022-10-17T12:35:35.148Z,17.80
2022-10-17T12:38:09.542Z,17.80
2022-10-17T12:40:35.752Z,17.40
2022-10-17T12:43:27.772Z,17.60
2022-10-17T12:45:55.779Z,17.70
2022-10-17T12:48:38.602Z,15.20
2022-10-17T12:54:01.452Z,16.80
2022-10-17T12:56:39.283Z,15.40
2022-10-17T12:59:13.012Z,17.00
2022-10-17T13:01:42.981Z,17.20
2022-10-17T13:04:10.214Z,18.50
2022-10-17T13:06:44.319Z,18.10
2022-10-17T13:09:31.460Z,17.90
2022-10-17T13:12:04.923Z,17.10
2022-10-17T13:14:33.226Z,18.30
2022-10-17T13:17:05.197Z,16.10
2022-10-17T13:19:41.790Z,19.80
2022-10-17T13:22:23.405Z,19.20
2022-10-17T13:24:51.710Z,18.80
2022-10-17T13:27:28.831Z,18.10
2022-10-17T13:29:57.851Z,21.10
2022-10-17T13:32:27.176Z,20.00
2022-10-17T13:35:14.136Z,19.90
2022-10-17T13:37:43.077Z,19.30
2022-10-17T13:40:44.730Z,19.80
2022-10-17T13:43:19.925Z,19.40
2022-10-17T13:45:49.693Z,20.20
2022-10-17T13:48:27.728Z,20.20
2022-10-17T13:51:01.752Z,21.30
2022-10-17T13:53:33.411Z,20.20
2022-10-17T13:56:26.459Z,20.40
2022-10-17T13:58:52.143Z,23.00
2022-10-17T14:01:20.532Z,20.70
2022-10-17T14:03:50.173Z,20.80
2022-10-17T14:06:26.212Z,20.00
2022-10-17T14:09:04.658Z,20.60
2022-10-17T14:11:37.186Z,21.50
2022-10-17T14:14:07.848Z,20.20
2022-10-17T14:16:40.830Z,20.90
2022-10-17T14:19:39.723Z,19.10
2022-10-17T14:22:22.237Z,20.80
2022-10-17T14:24:52.481Z,20.70
2022-10-17T14:27:38.547Z,20.70
2022-10-17T14:33:26.363Z,20.30
2022-10-17T14:35:56.514Z,20.40
2022-10-17T14:38:24.421Z,22.20
2022-10-17T14:41:15.672Z,21.00
2022-10-17T14:44:05.803Z,20.30
2022-10-17T14:46:35.013Z,22.60
2022-10-17T14:49:15.014Z,23.70
2022-10-17T14:52:29.210Z,23.30
2022-10-17T14:54:57.785Z,24.20
2022-10-17T14:57:28.704Z,24.30
2022-10-17T14:59:56.527Z,24.00
2022-10-17T15:02:28.573Z,23.30
2022-10-17T15:04:55.352Z,25.40
2022-10-17T15:07:22.861Z,24.40
2022-10-17T15:09:50.891Z,24.00
2022-10-17T15:12:24.008Z,25.60
2022-10-17T15:14:51.046Z,25.70
2022-10-17T15:17:25.085Z,26.30
2022-10-17T15:19:51.875Z,27.10
2022-10-17T15:22:18.148Z,29.30
2022-10-17T15:24:45.584Z,28.30
2022-10-17T15:27:24.350Z,27.90
2022-10-17T15:29:52.170Z,29.90
2022-10-17T15:32:18.418Z,29.60
2022-10-17T15:34:44.771Z,31.80
2022-10-17T15:37:32.830Z,30.10
2022-10-17T15:39:59.480Z,32.10
2022-10-17T15:42:28.925Z,35.20
2022-10-17T15:44:56.455Z,34.70
2022-10-17T15:47:32.885Z,34.10
2022-10-17T15:50:00.636Z,34.80
2022-10-17T15:52:27.052Z,35.10
2022-10-17T15:54:54.080Z,35.10
2022-10-17T15:57:23.988Z,35.50
2022-10-17T15:59:52.347Z,34.90
2022-10-17T16:02:20.553Z,33.80
2022-10-17T16:04:48.522Z,33.40
2022-10-17T16:07:15.377Z,34.00
2022-10-17T16:09:41.665Z,33.30
2022-10-17T16:12:17.264Z,33.70
2022-10-17T16:14:43.850Z,32.50
2022-10-17T16:17:15.573Z,30.80
2022-10-17T16:19:42.555Z,30.90
2022-10-17T16:22:36.051Z,31.90
2022-10-17T16:25:09.445Z,33.90
2022-10-17T16:30:07.662Z,31.80
2022-10-17T16:32:33.932Z,38.40
2022-10-17T16:35:00.804Z,36.40
2022-10-17T16:37:27.174Z,36.00
2022-10-17T16:39:53.492Z,34.70
2022-10-17T16:42:20.551Z,37.30
2022-10-17T16:44:48.516Z,35.40
2022-10-17T16:47:16.633Z,35.80
2022-10-17T16:49:45.264Z,34.70
2022-10-17T16:52:12.406Z,36.90
2022-10-17T16:54:38.683Z,36.20
2022-10-17T16:57:04.933Z,35.90
2022-10-17T16:59:31.158Z,34.90
2022-10-17T17:01:57.399Z,34.90
2022-10-17T17:04:23.805Z,36.50
2022-10-17T17:06:50.110Z,34.90
2022-10-17T17:09:16.381Z,39.80
2022-10-17T17:11:42.618Z,38.70
2022-10-17T17:14:10.328Z,38.80
2022-10-17T17:16:36.563Z,37.10
2022-10-17T17:19:05.689Z,37.70
2022-10-17T17:21:33.894Z,39.60
2022-10-17T17:24:02.033Z,38.00
2022-10-17T17:26:31.162Z,38.40
2022-10-17T17:28:59.698Z,38.50
2022-10-17T17:31:29.368Z,37.80
2022-10-17T17:36:25.699Z,39.00
2022-10-17T17:38:54.862Z,41.50
2022-10-17T17:41:21.519Z,42.70
2022-10-17T17:43:48.503Z,41.30
2022-10-17T17:46:17.363Z,43.50
2022-10-17T17:48:45.330Z,41.70
2022-10-17T17:51:13.580Z,41.40
2022-10-17T17:53:40.425Z,40.00
2022-10-17T17:56:10.056Z,39.90
2022-10-17T17:58:36.713Z,42.00
2022-10-17T18:01:13.199Z,41.80
2022-10-17T18:03:41.279Z,41.10
2022-10-17T18:06:08.610Z,40.70
2022-10-17T18:08:35.427Z,41.30
2022-10-17T18:11:02.453Z,39.70
2022-10-17T18:13:29.347Z,35.00
2022-10-17T18:16:00.530Z,44.80
2022-10-17T18:18:28.744Z,35.00
2022-10-17T18:20:55.830Z,42.80
2022-10-17T18:23:23.015Z,43.30
2022-10-17T18:25:54.061Z,45.80
2022-10-17T18:28:20.383Z,41.70
2022-10-17T18:30:46.748Z,45.10
2022-10-17T18:33:12.975Z,48.80
2022-10-17T18:35:39.190Z,59.00
2022-10-17T18:38:05.431Z,44.90
2022-10-17T18:40:31.785Z,44.30
2022-10-17T18:42:58.009Z,46.80
2022-10-17T18:45:24.320Z,61.10
2022-10-17T18:47:52.998Z,44.20
2022-10-17T18:50:20.860Z,44.80
2022-10-17T18:52:48.110Z,45.40
2022-10-17T18:55:17.638Z,42.40
2022-10-17T18:57:43.882Z,37.30
2022-10-17T19:00:10.745Z,41.80
2022-10-17T19:02:38.086Z,48.70
2022-10-17T19:05:04.726Z,47.60
2022-10-17T19:07:31.243Z,61.50
2022-10-17T19:09:57.689Z,53.20
2022-10-17T19:12:23.919Z,37.10
2022-10-17T19:14:50.528Z,41.60
2022-10-17T19:17:16.776Z,37.40
2022-10-17T19:19:43.323Z,38.50
2022-10-17T19:22:09.606Z,33.60
2022-10-17T19:24:35.884Z,34.10
2022-10-17T19:27:03.299Z,38.10
2022-10-17T19:29:32.971Z,33.40
2022-10-17T19:32:00.317Z,36.40
2022-10-17T19:34:27.106Z,37.50
2022-10-17T19:36:55.006Z,37.60
2022-10-17T19:39:24.377Z,36.80
2022-10-17T19:41:50.676Z,39.40
2022-10-17T19:44:17.564Z,39.40
2022-10-17T19:46:46.026Z,35.70
2022-10-17T19:49:12.640Z,37.40
2022-10-17T19:51:39.305Z,39.00
2022-10-17T19:54:05.565Z,38.00
2022-10-17T19:56:36.819Z,42.20
2022-10-17T19:59:05.379Z,42.10
2022-10-17T20:01:34.584Z,39.60
2022-10-17T20:04:01.239Z,34.30
2022-10-17T20:06:27.687Z,35.40
2022-10-17T20:08:54.160Z,38.30
2022-10-17T20:11:26.140Z,31.90
2022-10-17T20:13:54.280Z,31.90
2022-10-17T20:16:23.905Z,32.00
2022-10-17T20:18:51.748Z,31.80
2022-10-17T20:21:26.396Z,31.80
2022-10-17T20:23:53.758Z,30.70
2022-10-17T20:26:37.750Z,33.10
2022-10-17T20:29:09.847Z,33.30
2022-10-17T20:31:36.513Z,33.00
2022-10-17T20:34:03.355Z,33.10
2022-10-17T20:36:29.983Z,36.00
2022-10-17T20:38:58.053Z,38.00
2022-10-17T20:41:26.126Z,37.40
2022-10-17T20:43:54.379Z,37.40
2022-10-17T20:46:35.815Z,34.80
2022-10-17T20:49:04.891Z,40.40
2022-10-17T20:51:31.624Z,33.30
2022-10-17T20:53:58.296Z,33.10
2022-10-17T20:56:28.666Z,35.30
2022-10-17T20:59:00.927Z,34.30
2022-10-17T21:01:29.128Z,38.30
2022-10-17T21:03:58.889Z,35.70
2022-10-17T21:06:27.060Z,35.40
2022-10-17T21:08:54.854Z,33.30
2022-10-17T21:11:23.844Z,33.40
2022-10-17T21:13:55.872Z,30.10
2022-10-17T21:16:22.292Z,29.70
2022-10-17T21:18:49.104Z,30.00
2022-10-17T21:21:18.577Z,30.70
2022-10-17T21:23:47.416Z,30.30
2022-10-17T21:26:15.369Z,26.80
2022-10-17T21:28:43.203Z,28.60
2022-10-17T21:31:17.352Z,29.60
2022-10-17T21:33:47.765Z,28.40
2022-10-17T21:36:17.996Z,28.60
2022-10-17T21:38:46.484Z,29.60
2022-10-17T21:41:14.575Z,29.80
2022-10-17T21:43:42.497Z,29.00
2022-10-17T21:46:15.340Z,28.90
2022-10-17T21:48:42.244Z,30.80
2022-10-17T21:51:11.912Z,29.00
2022-10-17T21:53:38.646Z,28.50
2022-10-17T21:56:08.514Z,28.00
2022-10-17T21:58:34.744Z,28.70
2022-10-17T22:01:18.881Z,30.20
2022-10-17T22:03:47.754Z,30.00
2022-10-17T22:09:05.202Z,28.70
2022-10-17T22:11:34.314Z,28.10
2022-10-17T22:14:11.192Z,29.20
2022-10-17T22:16:38.662Z,28.10
2022-10-17T22:19:06.839Z,29.10
2022-10-17T22:21:35.557Z,29.10
2022-10-17T22:24:05.350Z,27.70
2022-10-17T22:26:34.187Z,27.20
2022-10-17T22:29:01.310Z,27.20
2022-10-17T22:31:27.699Z,28.80
2022-10-17T22:33:54.814Z,28.40
2022-10-17T22:36:21.072Z,27.20
2022-10-17T22:38:47.660Z,25.90
2022-10-17T22:41:13.911Z,27.00
2022-10-17T22:43:40.157Z,28.80
2022-10-17T22:46:06.984Z,27.40
2022-10-17T22:48:34.175Z,26.50
2022-10-17T22:51:01.857Z,27.10
2022-10-17T22:53:29.067Z,28.30
2022-10-17T22:56:00.701Z,26.60
2022-10-17T22:58:28.871Z,26.70
2022-10-17T23:00:55.713Z,27.10
2022-10-17T23:03:23.494Z,27.00
2022-10-17T23:05:50.657Z,28.20
2022-10-17T23:08:17.572Z,27.60
2022-10-17T23:10:45.471Z,28.00
2022-10-17T23:13:12.095Z,27.20
2022-10-17T23:15:38.351Z,27.50
2022-10-17T23:18:05.049Z,27.50
2022-10-17T23:20:31.889Z,26.50
2022-10-17T23:22:58.561Z,24.40
2022-10-17T23:25:26.108Z,27.20
2022-10-17T23:27:52.384Z,27.40
2022-10-17T23:30:19.010Z,27.60
2022-10-17T23:32:45.323Z,28.90
2022-10-17T23:35:11.569Z,27.00
2022-10-17T23:37:37.861Z,27.10
2022-10-17T23:40:05.433Z,27.40
2022-10-17T23:42:32.030Z,27.60
2022-10-17T23:44:58.243Z,27.50
2022-10-17T23:47:24.505Z,27.60
2022-10-17T23:49:50.804Z,27.60
2022-10-17T23:52:17.038Z,27.80
2022-10-17T23:54:43.498Z,27.60
2022-10-17T23:57:09.710Z,28.10
2022-10-17T23:59:36.250Z,29.60
